sensor_id;sensor_type;location;lat;lon;timestamp;P1;durP1;ratioP1;P2;durP2;ratioP2
77430;SDS011;66498;48.564;19.272;2023-08-07T00:00:26;3.15;;;2.00;;
77430;SDS011;66498;48.564;19.272;2023-08-07T00:02:52;1.85;;;1.75;;
77430;SDS011;66498;48.564;19.272;2023-08-07T00:05:17;2.00;;;1.80;;
77430;SDS011;66498;48.564;19.272;2023-08-07T00:07:43;1.90;;;1.80;;
77430;SDS011;66498;48.564;19.272;2023-08-07T00:10:09;2.10;;;1.90;;
77430;SDS011;66498;48.564;19.272;2023-08-07T00:12:35;3.25;;;2.03;;
77430;SDS011;66498;48.564;19.272;2023-08-07T00:15:01;2.30;;;2.10;;
77430;SDS011;66498;48.564;19.272;2023-08-07T00:17:27;2.25;;;2.05;;
77430;SDS011;66498;48.564;19.272;2023-08-07T00:19:53;2.45;;;2.25;;
77430;SDS011;66498;48.564;19.272;2023-08-07T00:22:19;2.03;;;1.90;;
77430;SDS011;66498;48.564;19.272;2023-08-07T00:24:44;2.25;;;2.05;;
77430;SDS011;66498;48.564;19.272;2023-08-07T00:27:09;2.35;;;2.10;;
77430;SDS011;66498;48.564;19.272;2023-08-07T00:29:39;2.25;;;1.98;;
77430;SDS011;66498;48.564;19.272;2023-08-07T00:32:04;2.90;;;1.80;;
77430;SDS011;66498;48.564;19.272;2023-08-07T00:34:30;2.00;;;1.90;;
77430;SDS011;66498;48.564;19.272;2023-08-07T00:36:56;2.00;;;1.90;;
77430;SDS011;66498;48.564;19.272;2023-08-07T00:39:21;1.80;;;1.70;;
77430;SDS011;66498;48.564;19.272;2023-08-07T00:41:47;1.80;;;1.70;;
77430;SDS011;66498;48.564;19.272;2023-08-07T00:44:13;3.55;;;1.70;;
77430;SDS011;66498;48.564;19.272;2023-08-07T00:46:38;1.67;;;1.55;;
77430;SDS011;66498;48.564;19.272;2023-08-07T00:49:05;1.58;;;1.48;;
77430;SDS011;66498;48.564;19.272;2023-08-07T00:51:32;1.45;;;1.35;;
77430;SDS011;66498;48.564;19.272;2023-08-07T00:53:58;1.50;;;1.40;;
77430;SDS011;66498;48.564;19.272;2023-08-07T00:56:25;1.40;;;1.30;;
77430;SDS011;66498;48.564;19.272;2023-08-07T00:58:51;2.03;;;1.35;;
77430;SDS011;66498;48.564;19.272;2023-08-07T01:01:17;1.30;;;1.10;;
77430;SDS011;66498;48.564;19.272;2023-08-07T01:03:43;1.13;;;1.13;;
77430;SDS011;66498;48.564;19.272;2023-08-07T01:06:09;2.22;;;1.30;;
77430;SDS011;66498;48.564;19.272;2023-08-07T01:08:34;1.23;;;1.13;;
77430;SDS011;66498;48.564;19.272;2023-08-07T01:11:07;1.05;;;1.05;;
77430;SDS011;66498;48.564;19.272;2023-08-07T01:14:00;1.17;;;1.08;;
77430;SDS011;66498;48.564;19.272;2023-08-07T01:16:34;0.95;;;0.95;;
77430;SDS011;66498;48.564;19.272;2023-08-07T01:19:05;0.98;;;0.98;;
77430;SDS011;66498;48.564;19.272;2023-08-07T01:21:36;1.10;;;1.00;;
77430;SDS011;66498;48.564;19.272;2023-08-07T01:24:02;0.75;;;0.75;;
77430;SDS011;66498;48.564;19.272;2023-08-07T01:26:28;0.80;;;0.80;;
77430;SDS011;66498;48.564;19.272;2023-08-07T01:31:42;0.75;;;0.75;;
77430;SDS011;66498;48.564;19.272;2023-08-07T01:34:11;0.70;;;0.70;;
77430;SDS011;66498;48.564;19.272;2023-08-07T01:36:40;0.80;;;0.68;;
77430;SDS011;66498;48.564;19.272;2023-08-07T01:39:07;0.60;;;0.60;;
77430;SDS011;66498;48.564;19.272;2023-08-07T01:41:33;1.83;;;0.63;;
77430;SDS011;66498;48.564;19.272;2023-08-07T01:44:01;1.10;;;0.70;;
77430;SDS011;66498;48.564;19.272;2023-08-07T01:46:26;0.70;;;0.70;;
77430;SDS011;66498;48.564;19.272;2023-08-07T01:48:52;2.05;;;0.70;;
77430;SDS011;66498;48.564;19.272;2023-08-07T01:51:17;0.90;;;0.57;;
77430;SDS011;66498;48.564;19.272;2023-08-07T01:53:43;0.60;;;0.60;;
77430;SDS011;66498;48.564;19.272;2023-08-07T01:56:08;0.43;;;0.43;;
77430;SDS011;66498;48.564;19.272;2023-08-07T01:58:34;0.60;;;0.60;;
77430;SDS011;66498;48.564;19.272;2023-08-07T02:00:59;1.48;;;0.60;;
77430;SDS011;66498;48.564;19.272;2023-08-07T02:03:25;0.50;;;0.50;;
77430;SDS011;66498;48.564;19.272;2023-08-07T02:05:50;0.60;;;0.60;;
77430;SDS011;66498;48.564;19.272;2023-08-07T02:08:15;0.82;;;0.65;;
77430;SDS011;66498;48.564;19.272;2023-08-07T02:10:41;0.70;;;0.70;;
77430;SDS011;66498;48.564;19.272;2023-08-07T02:13:06;0.93;;;0.70;;
77430;SDS011;66498;48.564;19.272;2023-08-07T02:15:32;0.63;;;0.63;;
77430;SDS011;66498;48.564;19.272;2023-08-07T02:17:57;1.95;;;0.80;;
77430;SDS011;66498;48.564;19.272;2023-08-07T02:20:23;0.60;;;0.60;;
77430;SDS011;66498;48.564;19.272;2023-08-07T02:22:48;0.60;;;0.60;;
77430;SDS011;66498;48.564;19.272;2023-08-07T02:25:14;0.55;;;0.55;;
77430;SDS011;66498;48.564;19.272;2023-08-07T02:27:40;0.60;;;0.60;;
77430;SDS011;66498;48.564;19.272;2023-08-07T02:30:05;0.73;;;0.73;;
77430;SDS011;66498;48.564;19.272;2023-08-07T02:32:31;1.27;;;0.60;;
77430;SDS011;66498;48.564;19.272;2023-08-07T02:34:57;0.55;;;0.40;;
77430;SDS011;66498;48.564;19.272;2023-08-07T02:37:23;0.65;;;0.50;;
77430;SDS011;66498;48.564;19.272;2023-08-07T02:39:48;1.55;;;0.60;;
77430;SDS011;66498;48.564;19.272;2023-08-07T02:42:14;0.52;;;0.52;;
77430;SDS011;66498;48.564;19.272;2023-08-07T02:44:39;1.80;;;0.60;;
77430;SDS011;66498;48.564;19.272;2023-08-07T02:47:05;0.47;;;0.47;;
77430;SDS011;66498;48.564;19.272;2023-08-07T02:49:31;0.50;;;0.50;;
77430;SDS011;66498;48.564;19.272;2023-08-07T02:51:56;0.50;;;0.50;;
77430;SDS011;66498;48.564;19.272;2023-08-07T02:54:22;0.50;;;0.50;;
77430;SDS011;66498;48.564;19.272;2023-08-07T02:56:47;0.60;;;0.60;;
77430;SDS011;66498;48.564;19.272;2023-08-07T02:59:14;1.17;;;0.57;;
77430;SDS011;66498;48.564;19.272;2023-08-07T03:01:39;0.60;;;0.60;;
77430;SDS011;66498;48.564;19.272;2023-08-07T03:04:05;0.60;;;0.60;;
77430;SDS011;66498;48.564;19.272;2023-08-07T03:06:30;0.52;;;0.52;;
77430;SDS011;66498;48.564;19.272;2023-08-07T03:08:56;1.85;;;0.82;;
77430;SDS011;66498;48.564;19.272;2023-08-07T03:11:22;0.60;;;0.50;;
77430;SDS011;66498;48.564;19.272;2023-08-07T03:13:47;0.52;;;0.50;;
77430;SDS011;66498;48.564;19.272;2023-08-07T03:16:14;0.50;;;0.50;;
77430;SDS011;66498;48.564;19.272;2023-08-07T03:18:40;1.27;;;1.17;;
77430;SDS011;66498;48.564;19.272;2023-08-07T03:21:05;1.05;;;0.70;;
77430;SDS011;66498;48.564;19.272;2023-08-07T03:23:31;0.50;;;0.50;;
77430;SDS011;66498;48.564;19.272;2023-08-07T03:26:06;0.52;;;0.50;;
77430;SDS011;66498;48.564;19.272;2023-08-07T03:28:35;0.68;;;0.60;;
77430;SDS011;66498;48.564;19.272;2023-08-07T03:31:02;0.52;;;0.52;;
77430;SDS011;66498;48.564;19.272;2023-08-07T03:33:27;0.43;;;0.43;;
77430;SDS011;66498;48.564;19.272;2023-08-07T03:35:53;0.70;;;0.70;;
77430;SDS011;66498;48.564;19.272;2023-08-07T03:38:19;2.20;;;0.57;;
77430;SDS011;66498;48.564;19.272;2023-08-07T03:40:45;1.58;;;0.52;;
77430;SDS011;66498;48.564;19.272;2023-08-07T03:43:10;0.60;;;0.60;;
77430;SDS011;66498;48.564;19.272;2023-08-07T03:45:36;0.60;;;0.60;;
77430;SDS011;66498;48.564;19.272;2023-08-07T03:48:01;1.13;;;0.60;;
77430;SDS011;66498;48.564;19.272;2023-08-07T03:50:27;0.60;;;0.60;;
77430;SDS011;66498;48.564;19.272;2023-08-07T03:52:55;1.45;;;0.52;;
77430;SDS011;66498;48.564;19.272;2023-08-07T03:55:20;0.85;;;0.60;;
77430;SDS011;66498;48.564;19.272;2023-08-07T03:57:46;0.60;;;0.60;;
77430;SDS011;66498;48.564;19.272;2023-08-07T04:00:12;0.60;;;0.60;;
77430;SDS011;66498;48.564;19.272;2023-08-07T04:02:38;0.50;;;0.50;;
77430;SDS011;66498;48.564;19.272;2023-08-07T04:05:04;0.60;;;0.60;;
77430;SDS011;66498;48.564;19.272;2023-08-07T04:07:29;0.60;;;0.60;;
77430;SDS011;66498;48.564;19.272;2023-08-07T04:09:55;0.68;;;0.68;;
77430;SDS011;66498;48.564;19.272;2023-08-07T04:12:21;2.00;;;0.52;;
77430;SDS011;66498;48.564;19.272;2023-08-07T04:14:46;0.70;;;0.70;;
77430;SDS011;66498;48.564;19.272;2023-08-07T04:17:12;0.60;;;0.60;;
77430;SDS011;66498;48.564;19.272;2023-08-07T04:19:37;1.25;;;0.70;;
77430;SDS011;66498;48.564;19.272;2023-08-07T04:22:03;1.15;;;0.63;;
77430;SDS011;66498;48.564;19.272;2023-08-07T04:24:28;0.70;;;0.60;;
77430;SDS011;66498;48.564;19.272;2023-08-07T04:26:54;0.98;;;0.60;;
77430;SDS011;66498;48.564;19.272;2023-08-07T04:29:19;0.80;;;0.80;;
77430;SDS011;66498;48.564;19.272;2023-08-07T04:31:45;1.45;;;0.70;;
77430;SDS011;66498;48.564;19.272;2023-08-07T04:34:10;0.60;;;0.60;;
77430;SDS011;66498;48.564;19.272;2023-08-07T04:36:37;0.65;;;0.65;;
77430;SDS011;66498;48.564;19.272;2023-08-07T04:39:03;1.85;;;0.70;;
77430;SDS011;66498;48.564;19.272;2023-08-07T04:41:28;1.58;;;0.68;;
77430;SDS011;66498;48.564;19.272;2023-08-07T04:43:54;0.80;;;0.80;;
77430;SDS011;66498;48.564;19.272;2023-08-07T04:46:19;2.05;;;0.60;;
77430;SDS011;66498;48.564;19.272;2023-08-07T04:48:48;0.63;;;0.63;;
77430;SDS011;66498;48.564;19.272;2023-08-07T04:51:13;2.92;;;0.90;;
77430;SDS011;66498;48.564;19.272;2023-08-07T04:53:40;0.68;;;0.68;;
77430;SDS011;66498;48.564;19.272;2023-08-07T04:56:06;0.60;;;0.60;;
77430;SDS011;66498;48.564;19.272;2023-08-07T04:58:31;2.35;;;0.70;;
77430;SDS011;66498;48.564;19.272;2023-08-07T05:00:57;1.52;;;0.80;;
77430;SDS011;66498;48.564;19.272;2023-08-07T05:03:23;0.50;;;0.50;;
77430;SDS011;66498;48.564;19.272;2023-08-07T05:05:50;1.77;;;0.75;;
77430;SDS011;66498;48.564;19.272;2023-08-07T05:08:16;0.80;;;0.80;;
77430;SDS011;66498;48.564;19.272;2023-08-07T05:10:42;1.42;;;0.70;;
77430;SDS011;66498;48.564;19.272;2023-08-07T05:13:07;4.50;;;0.65;;
77430;SDS011;66498;48.564;19.272;2023-08-07T05:15:33;0.60;;;0.60;;
77430;SDS011;66498;48.564;19.272;2023-08-07T05:17:58;1.17;;;0.60;;
77430;SDS011;66498;48.564;19.272;2023-08-07T05:20:24;2.15;;;0.60;;
77430;SDS011;66498;48.564;19.272;2023-08-07T05:22:50;0.60;;;0.60;;
77430;SDS011;66498;48.564;19.272;2023-08-07T05:25:15;0.65;;;0.65;;
77430;SDS011;66498;48.564;19.272;2023-08-07T05:27:45;1.15;;;0.50;;
77430;SDS011;66498;48.564;19.272;2023-08-07T05:30:11;0.57;;;0.57;;
77430;SDS011;66498;48.564;19.272;2023-08-07T05:32:37;1.98;;;0.60;;
77430;SDS011;66498;48.564;19.272;2023-08-07T05:35:06;0.50;;;0.50;;
77430;SDS011;66498;48.564;19.272;2023-08-07T05:37:32;1.55;;;0.70;;
77430;SDS011;66498;48.564;19.272;2023-08-07T05:39:58;0.60;;;0.60;;
77430;SDS011;66498;48.564;19.272;2023-08-07T05:42:24;0.95;;;0.60;;
77430;SDS011;66498;48.564;19.272;2023-08-07T05:44:50;0.60;;;0.60;;
77430;SDS011;66498;48.564;19.272;2023-08-07T05:47:16;1.88;;;0.40;;
77430;SDS011;66498;48.564;19.272;2023-08-07T05:49:41;0.50;;;0.50;;
77430;SDS011;66498;48.564;19.272;2023-08-07T05:52:07;0.50;;;0.50;;
77430;SDS011;66498;48.564;19.272;2023-08-07T05:54:33;0.63;;;0.60;;
77430;SDS011;66498;48.564;19.272;2023-08-07T05:56:59;0.60;;;0.60;;
77430;SDS011;66498;48.564;19.272;2023-08-07T05:59:24;0.75;;;0.40;;
77430;SDS011;66498;48.564;19.272;2023-08-07T06:01:50;0.40;;;0.40;;
77430;SDS011;66498;48.564;19.272;2023-08-07T06:04:16;0.65;;;0.50;;
77430;SDS011;66498;48.564;19.272;2023-08-07T06:06:42;0.60;;;0.60;;
77430;SDS011;66498;48.564;19.272;2023-08-07T06:09:08;0.68;;;0.65;;
77430;SDS011;66498;48.564;19.272;2023-08-07T06:11:34;0.63;;;0.52;;
77430;SDS011;66498;48.564;19.272;2023-08-07T06:14:00;0.60;;;0.60;;
77430;SDS011;66498;48.564;19.272;2023-08-07T06:16:26;0.93;;;0.60;;
77430;SDS011;66498;48.564;19.272;2023-08-07T06:18:52;0.50;;;0.50;;
77430;SDS011;66498;48.564;19.272;2023-08-07T06:21:18;1.85;;;0.55;;
77430;SDS011;66498;48.564;19.272;2023-08-07T06:23:45;1.35;;;0.50;;
77430;SDS011;66498;48.564;19.272;2023-08-07T06:26:12;0.52;;;0.52;;
77430;SDS011;66498;48.564;19.272;2023-08-07T06:28:38;0.60;;;0.60;;
77430;SDS011;66498;48.564;19.272;2023-08-07T06:31:04;0.57;;;0.57;;
77430;SDS011;66498;48.564;19.272;2023-08-07T06:33:32;0.50;;;0.50;;
77430;SDS011;66498;48.564;19.272;2023-08-07T06:36:01;0.40;;;0.40;;
77430;SDS011;66498;48.564;19.272;2023-08-07T06:38:27;1.50;;;0.50;;
77430;SDS011;66498;48.564;19.272;2023-08-07T06:40:53;0.57;;;0.57;;
77430;SDS011;66498;48.564;19.272;2023-08-07T06:43:18;1.80;;;0.75;;
77430;SDS011;66498;48.564;19.272;2023-08-07T06:45:46;0.40;;;0.40;;
77430;SDS011;66498;48.564;19.272;2023-08-07T06:48:14;0.40;;;0.40;;
77430;SDS011;66498;48.564;19.272;2023-08-07T06:50:43;0.40;;;0.40;;
77430;SDS011;66498;48.564;19.272;2023-08-07T06:53:09;0.47;;;0.47;;
77430;SDS011;66498;48.564;19.272;2023-08-07T06:55:34;0.88;;;0.60;;
77430;SDS011;66498;48.564;19.272;2023-08-07T06:58:00;0.85;;;0.47;;
77430;SDS011;66498;48.564;19.272;2023-08-07T07:00:25;0.22;;;0.22;;
77430;SDS011;66498;48.564;19.272;2023-08-07T07:02:51;0.43;;;0.43;;
77430;SDS011;66498;48.564;19.272;2023-08-07T07:05:18;0.43;;;0.43;;
77430;SDS011;66498;48.564;19.272;2023-08-07T07:07:43;1.38;;;0.40;;
77430;SDS011;66498;48.564;19.272;2023-08-07T07:10:09;0.40;;;0.40;;
77430;SDS011;66498;48.564;19.272;2023-08-07T07:12:34;0.52;;;0.52;;
77430;SDS011;66498;48.564;19.272;2023-08-07T07:15:00;0.50;;;0.50;;
77430;SDS011;66498;48.564;19.272;2023-08-07T07:17:26;0.60;;;0.60;;
77430;SDS011;66498;48.564;19.272;2023-08-07T07:19:51;0.30;;;0.30;;
77430;SDS011;66498;48.564;19.272;2023-08-07T07:22:17;0.52;;;0.52;;
77430;SDS011;66498;48.564;19.272;2023-08-07T07:24:42;0.47;;;0.30;;
77430;SDS011;66498;48.564;19.272;2023-08-07T07:27:08;0.50;;;0.50;;
77430;SDS011;66498;48.564;19.272;2023-08-07T07:29:34;0.50;;;0.50;;
77430;SDS011;66498;48.564;19.272;2023-08-07T07:31:59;0.40;;;0.40;;
77430;SDS011;66498;48.564;19.272;2023-08-07T07:34:25;0.73;;;0.50;;
77430;SDS011;66498;48.564;19.272;2023-08-07T07:36:50;0.60;;;0.60;;
77430;SDS011;66498;48.564;19.272;2023-08-07T07:39:18;1.10;;;0.75;;
77430;SDS011;66498;48.564;19.272;2023-08-07T07:41:44;0.40;;;0.40;;
77430;SDS011;66498;48.564;19.272;2023-08-07T07:44:09;0.60;;;0.60;;
77430;SDS011;66498;48.564;19.272;2023-08-07T07:46:36;0.52;;;0.52;;
77430;SDS011;66498;48.564;19.272;2023-08-07T07:49:03;0.50;;;0.40;;
77430;SDS011;66498;48.564;19.272;2023-08-07T07:51:30;0.57;;;0.55;;
77430;SDS011;66498;48.564;19.272;2023-08-07T07:53:57;0.40;;;0.40;;
77430;SDS011;66498;48.564;19.272;2023-08-07T07:56:23;0.75;;;0.40;;
77430;SDS011;66498;48.564;19.272;2023-08-07T07:58:49;0.60;;;0.60;;
77430;SDS011;66498;48.564;19.272;2023-08-07T08:01:14;0.70;;;0.50;;
77430;SDS011;66498;48.564;19.272;2023-08-07T08:03:40;0.40;;;0.40;;
77430;SDS011;66498;48.564;19.272;2023-08-07T08:06:06;0.50;;;0.50;;
77430;SDS011;66498;48.564;19.272;2023-08-07T08:08:31;0.50;;;0.50;;
77430;SDS011;66498;48.564;19.272;2023-08-07T08:10:57;0.50;;;0.50;;
77430;SDS011;66498;48.564;19.272;2023-08-07T08:13:22;0.70;;;0.63;;
77430;SDS011;66498;48.564;19.272;2023-08-07T08:15:50;0.50;;;0.50;;
77430;SDS011;66498;48.564;19.272;2023-08-07T08:18:16;0.80;;;0.50;;
77430;SDS011;66498;48.564;19.272;2023-08-07T08:20:42;0.50;;;0.50;;
77430;SDS011;66498;48.564;19.272;2023-08-07T08:23:07;0.65;;;0.57;;
77430;SDS011;66498;48.564;19.272;2023-08-07T08:25:33;0.90;;;0.63;;
77430;SDS011;66498;48.564;19.272;2023-08-07T08:27:58;0.68;;;0.57;;
77430;SDS011;66498;48.564;19.272;2023-08-07T08:30:25;0.65;;;0.65;;
77430;SDS011;66498;48.564;19.272;2023-08-07T08:32:51;0.55;;;0.55;;
77430;SDS011;66498;48.564;19.272;2023-08-07T08:35:16;1.55;;;0.73;;
77430;SDS011;66498;48.564;19.272;2023-08-07T08:37:42;2.15;;;0.80;;
77430;SDS011;66498;48.564;19.272;2023-08-07T08:40:08;0.60;;;0.60;;
77430;SDS011;66498;48.564;19.272;2023-08-07T08:42:41;1.57;;;1.00;;
77430;SDS011;66498;48.564;19.272;2023-08-07T08:45:08;0.60;;;0.60;;
77430;SDS011;66498;48.564;19.272;2023-08-07T08:47:38;0.70;;;0.70;;
77430;SDS011;66498;48.564;19.272;2023-08-07T08:50:06;0.77;;;0.77;;
77430;SDS011;66498;48.564;19.272;2023-08-07T08:52:34;1.27;;;0.93;;
77430;SDS011;66498;48.564;19.272;2023-08-07T08:55:01;1.20;;;1.10;;
77430;SDS011;66498;48.564;19.272;2023-08-07T08:57:28;0.98;;;0.70;;
77430;SDS011;66498;48.564;19.272;2023-08-07T08:59:55;3.47;;;1.20;;
77430;SDS011;66498;48.564;19.272;2023-08-07T09:02:24;1.10;;;0.70;;
77430;SDS011;66498;48.564;19.272;2023-08-07T09:04:50;0.98;;;0.68;;
77430;SDS011;66498;48.564;19.272;2023-08-07T09:07:16;0.65;;;0.65;;
77430;SDS011;66498;48.564;19.272;2023-08-07T09:09:43;0.52;;;0.52;;
77430;SDS011;66498;48.564;19.272;2023-08-07T09:12:12;0.98;;;0.63;;
77430;SDS011;66498;48.564;19.272;2023-08-07T09:14:44;0.70;;;0.70;;
77430;SDS011;66498;48.564;19.272;2023-08-07T09:17:14;0.50;;;0.50;;
77430;SDS011;66498;48.564;19.272;2023-08-07T09:19:41;0.50;;;0.50;;
77430;SDS011;66498;48.564;19.272;2023-08-07T09:22:07;0.55;;;0.55;;
77430;SDS011;66498;48.564;19.272;2023-08-07T09:24:33;0.77;;;0.60;;
77430;SDS011;66498;48.564;19.272;2023-08-07T09:26:59;0.30;;;0.30;;
77430;SDS011;66498;48.564;19.272;2023-08-07T09:29:25;0.60;;;0.60;;
77430;SDS011;66498;48.564;19.272;2023-08-07T09:31:53;5.32;;;0.70;;
77430;SDS011;66498;48.564;19.272;2023-08-07T09:34:19;0.63;;;0.50;;
77430;SDS011;66498;48.564;19.272;2023-08-07T09:36:45;0.60;;;0.60;;
77430;SDS011;66498;48.564;19.272;2023-08-07T09:39:11;0.65;;;0.65;;
77430;SDS011;66498;48.564;19.272;2023-08-07T09:41:37;1.40;;;0.65;;
77430;SDS011;66498;48.564;19.272;2023-08-07T09:44:06;0.60;;;0.60;;
77430;SDS011;66498;48.564;19.272;2023-08-07T09:46:42;0.60;;;0.60;;
77430;SDS011;66498;48.564;19.272;2023-08-07T09:49:08;0.55;;;0.50;;
77430;SDS011;66498;48.564;19.272;2023-08-07T09:51:52;0.70;;;0.70;;
77430;SDS011;66498;48.564;19.272;2023-08-07T09:54:17;0.50;;;0.50;;
77430;SDS011;66498;48.564;19.272;2023-08-07T09:56:43;0.60;;;0.60;;
77430;SDS011;66498;48.564;19.272;2023-08-07T09:59:09;0.50;;;0.50;;
77430;SDS011;66498;48.564;19.272;2023-08-07T10:01:38;0.55;;;0.55;;
77430;SDS011;66498;48.564;19.272;2023-08-07T10:04:07;0.47;;;0.47;;
77430;SDS011;66498;48.564;19.272;2023-08-07T10:06:36;0.40;;;0.40;;
77430;SDS011;66498;48.564;19.272;2023-08-07T10:09:01;0.80;;;0.52;;
77430;SDS011;66498;48.564;19.272;2023-08-07T10:11:28;0.40;;;0.40;;
77430;SDS011;66498;48.564;19.272;2023-08-07T10:13:54;0.70;;;0.70;;
77430;SDS011;66498;48.564;19.272;2023-08-07T10:16:22;0.90;;;0.65;;
77430;SDS011;66498;48.564;19.272;2023-08-07T10:18:47;0.40;;;0.40;;
77430;SDS011;66498;48.564;19.272;2023-08-07T10:21:13;0.75;;;0.60;;
77430;SDS011;66498;48.564;19.272;2023-08-07T10:23:38;0.47;;;0.47;;
77430;SDS011;66498;48.564;19.272;2023-08-07T10:26:06;0.40;;;0.40;;
77430;SDS011;66498;48.564;19.272;2023-08-07T10:28:35;0.50;;;0.50;;
77430;SDS011;66498;48.564;19.272;2023-08-07T10:31:03;0.47;;;0.47;;
77430;SDS011;66498;48.564;19.272;2023-08-07T10:33:30;0.43;;;0.43;;
77430;SDS011;66498;48.564;19.272;2023-08-07T10:35:57;0.30;;;0.30;;
77430;SDS011;66498;48.564;19.272;2023-08-07T10:38:25;0.50;;;0.50;;
77430;SDS011;66498;48.564;19.272;2023-08-07T10:43:28;1.13;;;0.50;;
77430;SDS011;66498;48.564;19.272;2023-08-07T10:45:59;0.40;;;0.40;;
77430;SDS011;66498;48.564;19.272;2023-08-07T10:48:29;0.50;;;0.50;;
77430;SDS011;66498;48.564;19.272;2023-08-07T10:56:10;0.38;;;0.38;;
77430;SDS011;66498;48.564;19.272;2023-08-07T10:58:47;0.38;;;0.38;;
77430;SDS011;66498;48.564;19.272;2023-08-07T11:04:00;0.70;;;0.40;;
77430;SDS011;66498;48.564;19.272;2023-08-07T11:06:32;0.40;;;0.40;;
77430;SDS011;66498;48.564;19.272;2023-08-07T11:09:01;0.60;;;0.60;;
77430;SDS011;66498;48.564;19.272;2023-08-07T11:11:39;0.30;;;0.30;;
77430;SDS011;66498;48.564;19.272;2023-08-07T11:14:11;0.55;;;0.40;;
77430;SDS011;66498;48.564;19.272;2023-08-07T11:16:46;0.40;;;0.40;;
77430;SDS011;66498;48.564;19.272;2023-08-07T11:19:13;0.43;;;0.43;;
77430;SDS011;66498;48.564;19.272;2023-08-07T11:21:40;0.50;;;0.50;;
77430;SDS011;66498;48.564;19.272;2023-08-07T11:24:07;0.45;;;0.45;;
77430;SDS011;66498;48.564;19.272;2023-08-07T11:26:33;0.80;;;0.40;;
77430;SDS011;66498;48.564;19.272;2023-08-07T11:28:58;0.40;;;0.40;;
77430;SDS011;66498;48.564;19.272;2023-08-07T11:31:24;0.40;;;0.40;;
77430;SDS011;66498;48.564;19.272;2023-08-07T11:33:51;0.50;;;0.47;;
77430;SDS011;66498;48.564;19.272;2023-08-07T11:36:17;0.30;;;0.30;;
77430;SDS011;66498;48.564;19.272;2023-08-07T11:38:43;0.40;;;0.40;;
77430;SDS011;66498;48.564;19.272;2023-08-07T11:41:13;0.40;;;0.40;;
77430;SDS011;66498;48.564;19.272;2023-08-07T11:43:40;0.30;;;0.30;;
77430;SDS011;66498;48.564;19.272;2023-08-07T11:46:08;0.38;;;0.38;;
77430;SDS011;66498;48.564;19.272;2023-08-07T11:48:38;0.38;;;0.38;;
77430;SDS011;66498;48.564;19.272;2023-08-07T11:51:06;1.15;;;0.35;;
77430;SDS011;66498;48.564;19.272;2023-08-07T11:53:33;0.40;;;0.40;;
77430;SDS011;66498;48.564;19.272;2023-08-07T11:56:04;0.43;;;0.43;;
77430;SDS011;66498;48.564;19.272;2023-08-07T12:01:11;0.30;;;0.30;;
77430;SDS011;66498;48.564;19.272;2023-08-07T12:03:38;0.40;;;0.40;;
77430;SDS011;66498;48.564;19.272;2023-08-07T12:06:07;0.63;;;0.52;;
77430;SDS011;66498;48.564;19.272;2023-08-07T12:08:40;0.50;;;0.50;;
77430;SDS011;66498;48.564;19.272;2023-08-07T12:11:10;0.30;;;0.30;;
77430;SDS011;66498;48.564;19.272;2023-08-07T12:13:38;0.40;;;0.40;;
77430;SDS011;66498;48.564;19.272;2023-08-07T12:16:05;0.40;;;0.40;;
77430;SDS011;66498;48.564;19.272;2023-08-07T12:18:33;0.30;;;0.30;;
77430;SDS011;66498;48.564;19.272;2023-08-07T12:21:04;0.85;;;0.40;;
77430;SDS011;66498;48.564;19.272;2023-08-07T12:23:34;0.40;;;0.40;;
77430;SDS011;66498;48.564;19.272;2023-08-07T12:26:01;0.50;;;0.50;;
77430;SDS011;66498;48.564;19.272;2023-08-07T12:28:27;0.40;;;0.40;;
77430;SDS011;66498;48.564;19.272;2023-08-07T12:30:53;0.32;;;0.32;;
77430;SDS011;66498;48.564;19.272;2023-08-07T12:33:19;0.40;;;0.40;;
77430;SDS011;66498;48.564;19.272;2023-08-07T12:35:46;0.80;;;0.80;;
77430;SDS011;66498;48.564;19.272;2023-08-07T12:38:12;0.30;;;0.30;;
77430;SDS011;66498;48.564;19.272;2023-08-07T12:40:42;0.30;;;0.30;;
77430;SDS011;66498;48.564;19.272;2023-08-07T12:43:08;0.30;;;0.30;;
77430;SDS011;66498;48.564;19.272;2023-08-07T12:45:34;0.45;;;0.40;;
77430;SDS011;66498;48.564;19.272;2023-08-07T12:48:00;0.30;;;0.30;;
77430;SDS011;66498;48.564;19.272;2023-08-07T12:50:26;1.00;;;0.40;;
77430;SDS011;66498;48.564;19.272;2023-08-07T12:52:52;0.30;;;0.30;;
77430;SDS011;66498;48.564;19.272;2023-08-07T12:55:18;0.35;;;0.35;;
77430;SDS011;66498;48.564;19.272;2023-08-07T12:57:44;0.30;;;0.30;;
77430;SDS011;66498;48.564;19.272;2023-08-07T13:00:10;1.17;;;0.40;;
77430;SDS011;66498;48.564;19.272;2023-08-07T13:02:42;1.55;;;0.50;;
77430;SDS011;66498;48.564;19.272;2023-08-07T13:05:12;0.30;;;0.30;;
77430;SDS011;66498;48.564;19.272;2023-08-07T13:07:40;0.25;;;0.25;;
77430;SDS011;66498;48.564;19.272;2023-08-07T13:10:06;0.30;;;0.30;;
77430;SDS011;66498;48.564;19.272;2023-08-07T13:12:37;0.40;;;0.40;;
77430;SDS011;66498;48.564;19.272;2023-08-07T13:15:05;0.50;;;0.50;;
77430;SDS011;66498;48.564;19.272;2023-08-07T13:17:33;0.40;;;0.40;;
77430;SDS011;66498;48.564;19.272;2023-08-07T13:20:00;0.60;;;0.60;;
77430;SDS011;66498;48.564;19.272;2023-08-07T13:22:26;0.35;;;0.30;;
77430;SDS011;66498;48.564;19.272;2023-08-07T13:24:53;0.30;;;0.30;;
77430;SDS011;66498;48.564;19.272;2023-08-07T13:27:18;0.30;;;0.30;;
77430;SDS011;66498;48.564;19.272;2023-08-07T13:29:44;0.30;;;0.30;;
77430;SDS011;66498;48.564;19.272;2023-08-07T13:32:10;0.30;;;0.30;;
77430;SDS011;66498;48.564;19.272;2023-08-07T13:34:36;0.57;;;0.57;;
77430;SDS011;66498;48.564;19.272;2023-08-07T13:37:02;0.30;;;0.30;;
77430;SDS011;66498;48.564;19.272;2023-08-07T13:39:29;0.30;;;0.30;;
77430;SDS011;66498;48.564;19.272;2023-08-07T13:41:55;0.57;;;0.38;;
77430;SDS011;66498;48.564;19.272;2023-08-07T13:44:21;0.88;;;0.88;;
77430;SDS011;66498;48.564;19.272;2023-08-07T13:46:47;0.40;;;0.40;;
77430;SDS011;66498;48.564;19.272;2023-08-07T13:49:13;0.30;;;0.30;;
77430;SDS011;66498;48.564;19.272;2023-08-07T13:51:40;0.30;;;0.30;;
77430;SDS011;66498;48.564;19.272;2023-08-07T13:54:06;0.30;;;0.30;;
77430;SDS011;66498;48.564;19.272;2023-08-07T13:56:33;0.20;;;0.20;;
77430;SDS011;66498;48.564;19.272;2023-08-07T13:59:00;0.30;;;0.30;;
77430;SDS011;66498;48.564;19.272;2023-08-07T14:01:26;0.52;;;0.30;;
77430;SDS011;66498;48.564;19.272;2023-08-07T14:03:53;0.60;;;0.60;;
77430;SDS011;66498;48.564;19.272;2023-08-07T14:06:18;0.30;;;0.30;;
77430;SDS011;66498;48.564;19.272;2023-08-07T14:08:46;0.30;;;0.30;;
77430;SDS011;66498;48.564;19.272;2023-08-07T14:11:12;0.40;;;0.40;;
77430;SDS011;66498;48.564;19.272;2023-08-07T14:13:39;0.65;;;0.40;;
77430;SDS011;66498;48.564;19.272;2023-08-07T14:16:06;1.40;;;0.50;;
77430;SDS011;66498;48.564;19.272;2023-08-07T14:18:32;1.27;;;0.60;;
77430;SDS011;66498;48.564;19.272;2023-08-07T14:20:59;1.15;;;0.52;;
77430;SDS011;66498;48.564;19.272;2023-08-07T14:23:25;0.55;;;0.55;;
77430;SDS011;66498;48.564;19.272;2023-08-07T14:25:51;0.85;;;0.60;;
77430;SDS011;66498;48.564;19.272;2023-08-07T14:28:18;0.68;;;0.50;;
77430;SDS011;66498;48.564;19.272;2023-08-07T14:30:44;0.40;;;0.40;;
77430;SDS011;66498;48.564;19.272;2023-08-07T14:33:10;0.50;;;0.50;;
77430;SDS011;66498;48.564;19.272;2023-08-07T14:35:35;0.47;;;0.47;;
77430;SDS011;66498;48.564;19.272;2023-08-07T14:38:01;1.88;;;1.48;;
77430;SDS011;66498;48.564;19.272;2023-08-07T14:40:27;0.90;;;0.90;;
77430;SDS011;66498;48.564;19.272;2023-08-07T14:42:53;0.95;;;0.90;;
77430;SDS011;66498;48.564;19.272;2023-08-07T14:45:20;1.98;;;1.75;;